createdAt,value
2018-10-12T00:00:26.041Z,40.33
2018-10-12T00:02:53.478Z,36.53
2018-10-12T00:05:20.925Z,36.53
2018-10-12T00:07:48.358Z,37.57
2018-10-12T00:10:15.821Z,38.37
2018-10-12T00:12:43.194Z,43.23
2018-10-12T00:15:10.614Z,38.57
2018-10-12T00:17:38.070Z,41.37
2018-10-12T00:20:06.151Z,39.10
2018-10-12T00:22:33.589Z,40.17
2018-10-12T00:25:00.944Z,37.73
2018-10-12T00:27:28.333Z,40.73
2018-10-12T00:29:55.776Z,39.43
2018-10-12T00:32:23.229Z,42.20
2018-10-12T00:34:50.641Z,40.53
2018-10-12T00:37:18.076Z,40.37
2018-10-12T00:39:45.550Z,40.60
2018-10-12T00:42:12.925Z,38.13
2018-10-12T00:44:40.325Z,42.57
2018-10-12T00:47:07.745Z,43.17
2018-10-12T00:49:35.193Z,47.37
2018-10-12T00:52:02.668Z,42.23
2018-10-12T00:54:30.067Z,35.83
2018-10-12T00:56:57.474Z,34.37
2018-10-12T00:59:24.968Z,38.50
2018-10-12T01:01:52.369Z,34.33
2018-10-12T01:04:19.843Z,39.50
2018-10-12T01:06:47.428Z,42.07
2018-10-12T01:09:14.749Z,44.57
2018-10-12T01:11:42.182Z,42.47
2018-10-12T01:14:09.593Z,38.77
2018-10-12T01:16:37.027Z,42.87
2018-10-12T01:19:04.453Z,39.03
2018-10-12T01:21:31.880Z,36.27
2018-10-12T01:23:59.388Z,41.63
2018-10-12T01:26:26.824Z,40.20
2018-10-12T01:28:55.607Z,37.93
2018-10-12T01:31:23.622Z,47.87
2018-10-12T01:33:51.130Z,46.60
2018-10-12T01:36:18.617Z,47.93
2018-10-12T01:38:46.016Z,51.43
2018-10-12T01:41:13.666Z,63.17
2018-10-12T01:43:41.133Z,54.17
2018-10-12T01:46:08.569Z,79.53
2018-10-12T01:48:36.027Z,51.83
2018-10-12T01:51:03.541Z,59.97
2018-10-12T01:53:30.977Z,66.13
2018-10-12T01:56:00.821Z,44.43
2018-10-12T01:58:28.657Z,50.83
2018-10-12T02:00:56.222Z,47.07
2018-10-12T02:03:23.628Z,69.60
2018-10-12T02:05:51.046Z,59.43
2018-10-12T02:08:18.521Z,131.07
2018-10-12T02:10:45.926Z,70.77
2018-10-12T02:13:13.313Z,63.10
2018-10-12T02:15:40.743Z,103.27
2018-10-12T02:18:08.181Z,103.10
2018-10-12T02:20:35.562Z,103.90
2018-10-12T02:23:03.046Z,71.20
2018-10-12T02:25:30.430Z,68.70
2018-10-12T02:27:57.850Z,55.60
2018-10-12T02:30:25.272Z,54.23
2018-10-12T02:32:52.676Z,72.03
2018-10-12T02:35:20.261Z,119.93
2018-10-12T02:37:47.666Z,310.87
2018-10-12T02:40:15.065Z,89.17
2018-10-12T02:42:42.490Z,86.60
2018-10-12T02:45:09.921Z,79.53
2018-10-12T02:47:37.292Z,65.20
2018-10-12T02:50:05.901Z,93.87
2018-10-12T02:52:33.314Z,72.67
2018-10-12T02:55:00.733Z,61.00
2018-10-12T02:57:28.137Z,72.77
2018-10-12T02:59:55.585Z,72.23
2018-10-12T03:02:23.021Z,50.83
2018-10-12T03:04:50.521Z,62.57
2018-10-12T03:07:17.967Z,60.07
2018-10-12T03:09:45.341Z,59.00
2018-10-12T03:12:12.774Z,77.07
2018-10-12T03:14:40.214Z,66.20
2018-10-12T03:17:07.632Z,58.67
2018-10-12T03:19:35.075Z,111.93
2018-10-12T03:22:02.578Z,129.10
2018-10-12T03:24:29.956Z,127.70
2018-10-12T03:26:57.387Z,158.87
2018-10-12T03:29:24.849Z,222.07
2018-10-12T03:31:52.298Z,140.23
2018-10-12T03:34:19.774Z,113.30
2018-10-12T03:36:47.250Z,110.47
2018-10-12T03:39:14.754Z,137.60
2018-10-12T03:41:42.210Z,183.07
2018-10-12T03:44:09.777Z,175.70
2018-10-12T03:46:37.253Z,156.80
2018-10-12T03:49:04.800Z,193.63
2018-10-12T03:51:32.425Z,153.73
2018-10-12T03:53:59.960Z,172.17
2018-10-12T03:56:27.333Z,144.13
2018-10-12T03:58:54.766Z,165.57
2018-10-12T04:01:22.167Z,205.07
2018-10-12T04:03:49.536Z,149.70
2018-10-12T04:06:17.095Z,139.93
2018-10-12T04:08:44.583Z,124.50
2018-10-12T04:11:11.995Z,166.47
2018-10-12T04:13:39.507Z,164.27
2018-10-12T04:16:07.020Z,111.87
2018-10-12T04:18:34.556Z,105.83
2018-10-12T04:21:02.058Z,94.93
2018-10-12T04:23:29.531Z,332.07
2018-10-12T04:25:57.033Z,288.27
2018-10-12T04:28:24.577Z,897.43
2018-10-12T04:30:52.002Z,726.50
2018-10-12T04:33:19.480Z,810.30
2018-10-12T04:35:47.054Z,251.13
2018-10-12T04:38:14.546Z,299.00
2018-10-12T04:41:15.141Z,100.03
2018-10-12T04:43:43.365Z,102.13
2018-10-12T04:46:13.321Z,135.63
2018-10-12T04:48:41.677Z,194.47
2018-10-12T04:51:12.425Z,1175.03
2018-10-12T04:53:39.976Z,143.03
2018-10-12T04:56:10.132Z,112.23
2018-10-12T04:58:38.298Z,284.63
2018-10-12T05:01:05.898Z,619.30
2018-10-12T05:03:33.345Z,635.33
2018-10-12T05:06:01.015Z,857.03
2018-10-12T05:08:28.554Z,681.77
2018-10-12T05:10:56.014Z,770.73
2018-10-12T05:13:23.618Z,239.30
2018-10-12T05:15:51.129Z,491.47
2018-10-12T05:18:18.591Z,302.87
2018-10-12T05:20:46.130Z,110.37
2018-10-12T05:23:13.651Z,186.03
2018-10-12T05:25:41.490Z,125.27
2018-10-12T05:28:09.046Z,151.33
2018-10-12T05:30:36.632Z,375.40
2018-10-12T05:33:04.213Z,302.23
2018-10-12T05:35:31.707Z,173.63
2018-10-12T05:37:59.302Z,254.57
2018-10-12T05:40:26.864Z,260.87
2018-10-12T05:42:54.419Z,330.03
2018-10-12T05:45:22.573Z,164.37
2018-10-12T05:47:50.171Z,348.57
2018-10-12T05:50:17.794Z,713.40
2018-10-12T05:52:45.360Z,533.17
2018-10-12T05:55:13.523Z,193.53
2018-10-12T05:57:42.353Z,267.07
2018-10-12T06:00:10.624Z,394.60
2018-10-12T06:02:38.315Z,197.03
2018-10-12T06:05:06.057Z,309.90
2018-10-12T06:07:34.253Z,518.17
2018-10-12T06:10:01.872Z,100.17
2018-10-12T06:12:29.287Z,168.43
2018-10-12T06:14:56.838Z,192.80
2018-10-12T06:17:24.466Z,394.17
2018-10-12T06:19:52.105Z,303.37
2018-10-12T06:22:19.575Z,236.50
2018-10-12T06:24:47.123Z,128.37
2018-10-12T06:27:14.721Z,175.37
2018-10-12T06:29:42.298Z,162.23
2018-10-12T06:32:09.887Z,244.17
2018-10-12T06:34:37.452Z,291.40
2018-10-12T06:37:05.042Z,278.03
2018-10-12T06:39:32.752Z,239.83
2018-10-12T06:42:00.298Z,243.83
2018-10-12T06:44:28.020Z,324.57
2018-10-12T06:46:55.750Z,374.00
2018-10-12T06:49:23.316Z,382.90
2018-10-12T06:51:50.897Z,366.80
2018-10-12T06:54:18.484Z,437.43
2018-10-12T06:56:46.837Z,413.20
2018-10-12T06:59:14.632Z,410.23
2018-10-12T07:01:42.470Z,283.97
2018-10-12T07:04:10.146Z,258.63
2018-10-12T07:06:37.982Z,235.07
2018-10-12T07:09:08.274Z,323.67
2018-10-12T07:11:35.825Z,264.93
2018-10-12T07:14:03.518Z,198.83
2018-10-12T07:16:31.109Z,198.20
2018-10-12T07:18:58.709Z,224.57
2018-10-12T07:21:26.293Z,184.70
2018-10-12T07:23:54.112Z,226.90
2018-10-12T07:26:21.653Z,227.00
2018-10-12T07:28:49.532Z,223.23
2018-10-12T07:31:17.162Z,145.13
2018-10-12T07:33:44.837Z,149.80
2018-10-12T07:36:13.043Z,147.70
2018-10-12T07:38:40.614Z,152.53
2018-10-12T07:41:08.765Z,125.67
2018-10-12T07:43:36.429Z,110.37
2018-10-12T07:46:04.012Z,112.03
2018-10-12T07:48:31.607Z,103.63
2018-10-12T07:50:59.200Z,96.67
2018-10-12T07:53:26.880Z,86.17
2018-10-12T07:55:54.539Z,84.70
2018-10-12T07:58:22.208Z,82.33
2018-10-12T08:00:49.889Z,66.67
2018-10-12T08:03:17.340Z,57.30
2018-10-12T08:05:44.941Z,68.13
2018-10-12T08:08:12.492Z,58.13
2018-10-12T08:10:40.217Z,57.43
2018-10-12T08:13:07.878Z,51.87
2018-10-12T08:15:35.601Z,52.73
2018-10-12T08:18:03.237Z,55.13
2018-10-12T08:20:31.031Z,47.77
2018-10-12T08:22:59.097Z,44.83
2018-10-12T08:25:26.654Z,42.47
2018-10-12T08:27:54.321Z,40.73
2018-10-12T08:30:21.821Z,41.60
2018-10-12T08:32:49.549Z,40.17
2018-10-12T08:35:17.361Z,41.80
2018-10-12T08:37:44.981Z,40.50
2018-10-12T08:40:12.700Z,38.90
2018-10-12T08:42:40.292Z,37.13
2018-10-12T08:45:07.919Z,39.00
2018-10-12T08:47:35.630Z,38.93
2018-10-12T08:50:03.245Z,36.90
2018-10-12T08:52:30.909Z,32.37
2018-10-12T08:54:58.513Z,32.00
2018-10-12T08:57:26.101Z,29.87
2018-10-12T08:59:53.818Z,33.77
2018-10-12T09:02:21.284Z,31.67
2018-10-12T09:04:48.898Z,30.10
2018-10-12T09:07:16.902Z,26.93
2018-10-12T09:09:44.434Z,30.00
2018-10-12T09:12:11.986Z,28.93
2018-10-12T09:17:10.557Z,31.43
2018-10-12T09:19:38.224Z,34.23
2018-10-12T09:22:05.923Z,28.53
2018-10-12T09:24:33.629Z,30.43
2018-10-12T09:27:01.238Z,29.00
2018-10-12T09:29:28.875Z,27.43
2018-10-12T09:31:56.448Z,27.93
2018-10-12T09:34:23.920Z,25.60
2018-10-12T09:36:51.672Z,27.73
2018-10-12T09:39:19.289Z,26.77
2018-10-12T09:41:47.013Z,27.23
2018-10-12T09:44:14.531Z,25.13
2018-10-12T09:46:42.172Z,27.53
2018-10-12T09:49:09.902Z,25.10
2018-10-12T09:51:37.598Z,26.27
2018-10-12T09:54:05.288Z,25.40
2018-10-12T09:56:32.893Z,26.00
2018-10-12T09:59:00.523Z,24.27
2018-10-12T10:01:33.718Z,26.60
2018-10-12T10:04:07.081Z,22.40
2018-10-12T10:06:34.603Z,21.67
2018-10-12T10:09:03.195Z,23.67
2018-10-12T10:11:31.072Z,25.70
2018-10-12T10:13:58.801Z,22.13
2018-10-12T10:16:27.370Z,23.20
2018-10-12T10:18:55.014Z,25.63
2018-10-12T10:21:22.620Z,23.03
2018-10-12T10:23:50.251Z,24.10
2018-10-12T10:26:18.446Z,25.07
2018-10-12T10:28:46.015Z,24.07
2018-10-12T10:31:13.641Z,25.03
2018-10-12T10:33:41.307Z,21.97
2018-10-12T10:36:08.866Z,22.03
2018-10-12T10:38:36.850Z,22.53
2018-10-12T10:41:04.373Z,22.90
2018-10-12T10:43:31.916Z,20.90
2018-10-12T10:45:59.568Z,20.00
2018-10-12T10:48:27.244Z,22.10
2018-10-12T10:50:54.998Z,18.53
2018-10-12T10:53:23.013Z,19.40
2018-10-12T10:55:50.719Z,21.53
2018-10-12T10:58:18.233Z,23.93
2018-10-12T11:00:45.965Z,25.07
2018-10-12T11:03:13.508Z,20.07
2018-10-12T11:05:41.369Z,19.43
2018-10-12T11:08:08.957Z,20.80
2018-10-12T11:10:37.645Z,20.47
2018-10-12T11:13:05.738Z,21.87
2018-10-12T11:15:33.267Z,18.73
2018-10-12T11:18:00.846Z,20.80
2018-10-12T11:20:28.381Z,19.23
2018-10-12T11:22:56.138Z,17.93
2018-10-12T11:25:23.784Z,24.73
2018-10-12T11:27:51.381Z,20.77
2018-10-12T11:30:19.575Z,20.30
2018-10-12T11:32:47.186Z,17.73
2018-10-12T11:35:14.801Z,19.77
2018-10-12T11:37:42.326Z,22.17
2018-10-12T11:40:09.848Z,18.00
2018-10-12T11:42:48.838Z,21.77
2018-10-12T11:45:16.403Z,20.03
2018-10-12T11:47:44.016Z,21.03
2018-10-12T11:50:12.057Z,17.83
2018-10-12T11:52:40.340Z,19.63
2018-10-12T11:55:09.581Z,19.90
2018-10-12T11:57:37.716Z,19.53
2018-10-12T12:00:05.961Z,19.20
2018-10-12T12:02:34.556Z,18.00
2018-10-12T12:05:02.185Z,22.37
2018-10-12T12:07:29.806Z,18.17
2018-10-12T12:09:57.468Z,19.87
2018-10-12T12:12:25.045Z,18.47
2018-10-12T12:14:52.653Z,25.40
2018-10-12T12:17:21.026Z,20.67
2018-10-12T12:19:48.896Z,20.40
2018-10-12T12:22:16.520Z,19.10
2018-10-12T12:24:44.319Z,21.87
2018-10-12T12:27:11.971Z,19.93
2018-10-12T12:29:39.551Z,20.17
2018-10-12T12:32:07.211Z,18.53
2018-10-12T12:34:34.776Z,19.50
2018-10-12T12:37:02.301Z,19.27
2018-10-12T12:39:30.405Z,20.43
2018-10-12T12:41:58.056Z,18.70
2018-10-12T12:44:25.634Z,17.93
2018-10-12T12:46:53.266Z,20.50
2018-10-12T12:49:21.024Z,18.27
2018-10-12T12:51:48.345Z,19.27
2018-10-12T12:54:15.858Z,19.37
2018-10-12T12:56:43.545Z,19.67
2018-10-12T12:59:11.690Z,18.47
2018-10-12T13:01:39.235Z,21.53
2018-10-12T13:04:06.844Z,16.20
2018-10-12T13:06:35.048Z,19.47
2018-10-12T13:09:02.865Z,19.57
2018-10-12T13:11:30.335Z,19.47
2018-10-12T13:13:58.591Z,20.17
2018-10-12T13:16:26.169Z,18.77
2018-10-12T13:18:53.790Z,19.40
2018-10-12T13:21:21.276Z,20.00
2018-10-12T13:23:48.935Z,22.90
2018-10-12T13:26:16.645Z,18.70
2018-10-12T13:28:44.057Z,20.90
2018-10-12T13:31:11.873Z,18.27
2018-10-12T13:33:39.475Z,17.10
2018-10-12T13:36:07.846Z,20.50
2018-10-12T13:38:35.460Z,17.73
2018-10-12T13:41:03.165Z,17.00
2018-10-12T13:43:30.757Z,19.77
2018-10-12T13:45:58.277Z,20.97
2018-10-12T13:48:26.048Z,21.77
2018-10-12T13:50:54.450Z,19.90
2018-10-12T13:53:22.030Z,19.20
2018-10-12T13:55:49.544Z,23.57
2018-10-12T13:58:17.122Z,22.27
2018-10-12T14:00:44.804Z,24.83
2018-10-12T14:03:12.281Z,20.83
2018-10-12T14:05:40.277Z,20.90
2018-10-12T14:08:30.575Z,21.27
2018-10-12T14:10:58.330Z,20.20
2018-10-12T14:13:26.087Z,20.50
2018-10-12T14:15:53.775Z,23.73
2018-10-12T14:18:21.355Z,20.97
2018-10-12T14:20:48.775Z,20.90
2018-10-12T14:23:16.382Z,18.97
2018-10-12T14:25:44.104Z,21.63
2018-10-12T14:28:11.745Z,20.03
2018-10-12T14:30:39.307Z,20.10
2018-10-12T14:33:07.111Z,19.80
2018-10-12T14:35:34.742Z,20.17
2018-10-12T14:38:02.360Z,19.30
2018-10-12T14:40:29.887Z,18.67
2018-10-12T14:42:57.553Z,20.93
2018-10-12T14:45:25.255Z,23.77
2018-10-12T14:47:52.893Z,18.97
2018-10-12T14:50:20.397Z,24.90
2018-10-12T14:52:48.054Z,21.73
2018-10-12T14:55:15.649Z,22.27
2018-10-12T14:57:43.177Z,23.37
2018-10-12T15:00:10.802Z,22.30
2018-10-12T15:02:38.286Z,22.20
2018-10-12T15:05:06.756Z,24.20
2018-10-12T15:07:34.277Z,27.03
2018-10-12T15:10:02.284Z,22.20
2018-10-12T15:12:30.008Z,24.27
2018-10-12T15:15:21.139Z,25.47
2018-10-12T15:17:49.899Z,22.17
2018-10-12T15:20:17.579Z,26.73
2018-10-12T15:22:45.243Z,23.17
2018-10-12T15:25:12.882Z,23.07
2018-10-12T15:27:41.073Z,21.53
2018-10-12T15:30:09.135Z,22.30
2018-10-12T15:32:36.616Z,21.93
2018-10-12T15:35:04.437Z,24.13
2018-10-12T15:37:31.950Z,23.03
2018-10-12T15:39:59.937Z,24.50
2018-10-12T15:42:27.393Z,21.33
2018-10-12T15:44:54.866Z,23.83
2018-10-12T15:47:22.979Z,26.80
2018-10-12T15:49:50.681Z,22.53
2018-10-12T15:52:18.254Z,28.27
2018-10-12T15:54:45.878Z,22.47
2018-10-12T15:57:17.757Z,25.97
2018-10-12T15:59:45.649Z,24.37
2018-10-12T16:02:13.595Z,27.77
2018-10-12T16:04:41.177Z,26.73
2018-10-12T16:07:08.755Z,24.70
2018-10-12T16:09:36.373Z,25.70
2018-10-12T16:12:03.946Z,25.10
2018-10-12T16:14:31.640Z,24.83
2018-10-12T16:17:00.269Z,30.10
2018-10-12T16:19:27.976Z,24.73
2018-10-12T16:21:55.681Z,28.83
2018-10-12T16:24:23.237Z,23.83
2018-10-12T16:26:50.698Z,29.97
2018-10-12T16:29:19.594Z,26.50
2018-10-12T16:31:47.074Z,25.90
2018-10-12T16:34:14.670Z,30.47
2018-10-12T16:36:42.180Z,28.23
2018-10-12T16:39:10.315Z,28.23
2018-10-12T16:41:38.596Z,27.13
2018-10-12T16:44:06.123Z,33.67
2018-10-12T16:46:33.677Z,25.70
2018-10-12T16:49:02.153Z,30.07
2018-10-12T16:51:29.639Z,25.43
2018-10-12T16:53:57.115Z,27.67
2018-10-12T16:56:24.634Z,29.43
2018-10-12T16:58:52.120Z,27.03
2018-10-12T17:01:19.557Z,27.57
2018-10-12T17:03:47.012Z,29.50
2018-10-12T17:06:14.493Z,25.70
2018-10-12T17:08:41.954Z,31.20
2018-10-12T17:11:09.353Z,32.00
2018-10-12T17:13:36.865Z,25.33
2018-10-12T17:16:04.401Z,27.17
2018-10-12T17:18:31.922Z,30.73
2018-10-12T17:20:59.329Z,28.03
2018-10-12T17:23:26.756Z,32.27
2018-10-12T17:25:54.210Z,32.37
2018-10-12T17:28:21.766Z,30.50
2018-10-12T17:30:49.298Z,29.60
2018-10-12T17:33:16.781Z,31.63
2018-10-12T17:35:44.269Z,27.80
2018-10-12T17:38:11.719Z,30.33
2018-10-12T17:40:39.162Z,32.90
2018-10-12T17:43:06.791Z,30.67
2018-10-12T17:45:34.133Z,32.03
2018-10-12T17:48:01.592Z,28.87
2018-10-12T17:50:29.117Z,29.40
2018-10-12T17:52:56.572Z,32.17
2018-10-12T17:55:23.981Z,34.97
2018-10-12T17:57:51.481Z,34.30
2018-10-12T18:00:19.062Z,32.80
2018-10-12T18:02:46.424Z,31.50
2018-10-12T18:05:13.905Z,33.03
2018-10-12T18:07:41.468Z,35.00
2018-10-12T18:10:09.612Z,36.77
2018-10-12T18:12:37.022Z,35.50
2018-10-12T18:15:06.266Z,35.50
2018-10-12T18:17:33.648Z,39.90
2018-10-12T18:20:01.097Z,46.10
2018-10-12T18:22:28.645Z,33.40
2018-10-12T18:24:56.058Z,39.43
2018-10-12T18:27:23.490Z,43.03
2018-10-12T18:29:51.027Z,57.23
2018-10-12T18:32:18.582Z,40.10
2018-10-12T18:34:46.137Z,39.57
2018-10-12T18:37:13.649Z,42.43
2018-10-12T18:39:41.137Z,40.90
2018-10-12T18:42:08.674Z,45.50
2018-10-12T18:44:36.213Z,36.37
2018-10-12T18:47:03.773Z,31.23
2018-10-12T18:49:31.293Z,53.33
2018-10-12T18:51:58.829Z,45.90
2018-10-12T18:54:26.339Z,41.27
2018-10-12T18:56:53.772Z,56.77
2018-10-12T18:59:21.239Z,53.70
2018-10-12T19:01:48.704Z,38.60
2018-10-12T19:04:16.218Z,35.27
2018-10-12T19:06:43.687Z,38.30
2018-10-12T19:09:11.189Z,43.83
2018-10-12T19:11:39.573Z,55.70
2018-10-12T19:14:07.001Z,32.40
2018-10-12T19:16:34.497Z,40.17
2018-10-12T19:19:01.989Z,55.47
2018-10-12T19:21:29.702Z,50.47
2018-10-12T19:23:57.202Z,49.13
2018-10-12T19:26:24.677Z,38.53
2018-10-12T19:28:52.179Z,60.40
2018-10-12T19:31:19.653Z,48.87
2018-10-12T19:33:47.147Z,66.63
2018-10-12T19:36:14.625Z,51.07
2018-10-12T19:38:42.161Z,55.83
2018-10-12T19:41:09.663Z,50.23
2018-10-12T19:43:37.148Z,49.63
2018-10-12T19:46:04.644Z,48.10
2018-10-12T19:48:32.162Z,57.43
2018-10-12T19:50:59.640Z,73.00
2018-10-12T19:53:27.336Z,58.67
2018-10-12T19:55:54.876Z,49.63
2018-10-12T19:58:22.540Z,53.90
2018-10-12T20:00:50.029Z,52.23
2018-10-12T20:03:17.569Z,76.10
2018-10-12T20:05:45.014Z,62.43
2018-10-12T20:08:12.478Z,68.67
2018-10-12T20:10:39.941Z,65.93
2018-10-12T20:13:07.435Z,85.40
2018-10-12T20:15:34.936Z,55.90
2018-10-12T20:18:02.429Z,74.33
2018-10-12T20:20:29.905Z,49.67
2018-10-12T20:22:57.354Z,61.43
2018-10-12T20:25:24.839Z,61.03
2018-10-12T20:27:52.535Z,75.60
2018-10-12T20:30:20.076Z,58.73
2018-10-12T20:32:47.488Z,65.93
2018-10-12T20:35:14.992Z,53.40
2018-10-12T20:37:42.478Z,54.97
2018-10-12T20:40:10.041Z,171.00
2018-10-12T20:42:37.547Z,110.17
2018-10-12T20:45:05.037Z,87.57
2018-10-12T20:47:32.553Z,105.23
2018-10-12T20:50:00.046Z,99.17
2018-10-12T20:52:27.514Z,591.33
2018-10-12T20:54:55.052Z,86.07
2018-10-12T20:57:22.570Z,103.73
2018-10-12T20:59:50.029Z,104.33
2018-10-12T21:02:17.554Z,49.43
2018-10-12T21:04:45.043Z,56.67
2018-10-12T21:07:12.516Z,67.03
2018-10-12T21:09:39.958Z,67.73
2018-10-12T21:12:07.408Z,61.50
2018-10-12T21:14:34.858Z,47.83
2018-10-12T21:17:02.406Z,64.73
2018-10-12T21:19:29.962Z,221.20
2018-10-12T21:21:57.420Z,54.77
2018-10-12T21:24:24.875Z,57.67
2018-10-12T21:26:52.335Z,58.27
2018-10-12T21:29:19.827Z,94.50
2018-10-12T21:31:47.241Z,47.17
2018-10-12T21:34:14.750Z,54.20
2018-10-12T21:36:42.314Z,55.93
2018-10-12T21:39:09.781Z,51.07
2018-10-12T21:41:37.290Z,45.03
2018-10-12T21:44:04.669Z,45.00
2018-10-12T21:46:32.116Z,42.40
2018-10-12T21:48:59.514Z,43.60
2018-10-12T21:51:27.028Z,37.23
2018-10-12T21:53:54.441Z,48.57
2018-10-12T21:56:21.829Z,713.10
2018-10-12T21:58:49.445Z,292.13
2018-10-12T22:01:16.831Z,103.20
2018-10-12T22:03:44.213Z,43.77
2018-10-12T22:06:11.625Z,50.93
2018-10-12T22:08:44.569Z,339.20
2018-10-12T22:11:12.049Z,52.13
2018-10-12T22:13:39.496Z,45.97
2018-10-12T22:16:06.936Z,62.43
2018-10-12T22:18:34.356Z,57.03
2018-10-12T22:21:01.769Z,48.03
2018-10-12T22:23:29.200Z,106.90
2018-10-12T22:25:56.663Z,45.50
2018-10-12T22:28:24.039Z,42.60
2018-10-12T22:30:51.433Z,45.13
2018-10-12T22:33:18.842Z,128.17
2018-10-12T22:35:46.296Z,191.47
2018-10-12T22:38:13.758Z,113.33
2018-10-12T22:40:41.210Z,236.87
2018-10-12T22:43:08.636Z,96.27
2018-10-12T22:45:36.057Z,46.83
2018-10-12T22:48:03.531Z,44.73
2018-10-12T22:50:30.917Z,42.20
2018-10-12T22:52:58.352Z,104.13
2018-10-12T22:55:25.787Z,64.63
2018-10-12T22:57:58.985Z,39.63
2018-10-12T23:00:26.505Z,55.57
2018-10-12T23:02:53.906Z,88.53
2018-10-12T23:05:21.347Z,71.00
2018-10-12T23:07:48.741Z,45.70
2018-10-12T23:10:16.152Z,36.20
2018-10-12T23:12:43.746Z,33.00
2018-10-12T23:15:11.094Z,37.27
2018-10-12T23:17:38.484Z,117.90
2018-10-12T23:20:05.997Z,131.80
2018-10-12T23:22:33.418Z,214.30
2018-10-12T23:25:00.821Z,412.87
2018-10-12T23:27:28.276Z,578.27
2018-10-12T23:29:55.674Z,170.27
2018-10-12T23:32:23.052Z,356.10
2018-10-12T23:34:50.452Z,282.57
2018-10-12T23:37:17.862Z,290.67
2018-10-12T23:39:45.298Z,328.57
2018-10-12T23:42:12.749Z,64.03
2018-10-12T23:44:40.141Z,124.13
2018-10-12T23:47:07.621Z,64.13
2018-10-12T23:49:34.992Z,79.93
2018-10-12T23:52:02.397Z,92.03
2018-10-12T23:54:29.813Z,91.30
2018-10-12T23:56:57.249Z,66.07
2018-10-12T23:59:24.625Z,89.30
